Time,TemperatureF,DewpointF,PressureIn,WindDirection,WindDirectionDegrees,WindSpeedMPH,WindSpeedGustMPH,Humidity,HourlyPrecipIn,Conditions,Clouds,dailyrainin,SoftwareType,DateUTC
2013-02-10 00:00:00,34.0,19.5,28.73,SW,230,0.0,0.0,55,0.00,CLR,CLR,0.00,WeatherDisplay:10.37,2013-02-10 05:00:00,
2013-02-10 00:02:00,33.9,19.4,28.74,SW,230,0.0,0.0,55,0.00,CLR,CLR,0.00,WeatherDisplay:10.37,2013-02-10 05:02:00,
2013-02-10 00:08:00,33.6,19.1,28.73,SW,230,3.5,3.5,55,0.00,CLR,CLR,0.00,WeatherDisplay:10.37,2013-02-10 05:08:00,
2013-02-10 00:13:00,33.4,19.4,28.74,SW,230,2.3,2.3,56,0.00,CLR,CLR,0.00,WeatherDisplay:10.37,2013-02-10 05:13:00,
2013-02-10 00:18:00,33.3,19.7,28.75,SW,230,3.5,3.5,57,0.00,CLR,CLR,0.00,WeatherDisplay:10.37,2013-02-10 05:18:00,
2013-02-10 00:24:00,33.3,19.3,28.75,SW,231,2.3,2.3,56,0.00,CLR,CLR,0.00,WeatherDisplay:10.37,2013-02-10 05:24:00,
2013-02-10 00:29:00,33.3,19.3,28.74,SW,231,2.3,2.3,56,0.00,CLR,CLR,0.00,WeatherDisplay:10.37,2013-02-10 05:29:00,
2013-02-10 00:34:00,33.3,18.9,28.75,SW,231,0.0,0.0,55,0.00,CLR,CLR,0.00,WeatherDisplay:10.37,2013-02-10 05:34:00,
2013-02-10 00:39:00,33.3,18.9,28.75,SW,231,2.3,2.3,55,0.00,CLR,CLR,0.00,WeatherDisplay:10.37,2013-02-10 05:39:00,
2013-02-10 00:44:00,33.2,19.2,28.74,SW,231,3.5,3.5,56,0.00,CLR,CLR,0.00,WeatherDisplay:10.37,2013-02-10 05:44:00,
2013-02-10 00:50:00,33.0,19.0,28.74,SW,231,2.3,2.3,56,0.00,CLR,CLR,0.00,WeatherDisplay:10.37,2013-02-10 05:50:00,
2013-02-10 00:55:00,32.9,19.3,28.74,SW,231,1.2,0.0,57,0.00,CLR,CLR,0.00,WeatherDisplay:10.37,2013-02-10 05:55:00,
2013-02-10 01:00:00,32.7,19.1,28.74,SW,231,0.0,0.0,57,0.00,CLR,CLR,0.00,WeatherDisplay:10.37,2013-02-10 06:00:00,
2013-02-10 01:05:00,32.6,19.0,28.74,SW,231,3.5,3.5,57,0.00,CLR,CLR,0.00,WeatherDisplay:10.37,2013-02-10 06:05:00,
2013-02-10 01:10:00,32.6,19.0,28.74,SW,231,2.3,2.3,57,0.00,CLR,CLR,0.00,WeatherDisplay:10.37,2013-02-10 06:10:00,
2013-02-10 01:16:00,32.6,19.0,28.74,SW,231,2.3,2.3,57,0.00,CLR,CLR,0.00,WeatherDisplay:10.37,2013-02-10 06:16:00,
2013-02-10 01:21:00,32.5,19.3,28.74,SW,231,3.5,3.5,58,0.00,CLR,CLR,0.00,WeatherDisplay:10.37,2013-02-10 06:21:00,
2013-02-10 01:26:00,32.4,19.3,28.74,SW,231,3.5,3.5,58,0.00,CLR,CLR,0.00,WeatherDisplay:10.37,2013-02-10 06:26:00,
2013-02-10 01:31:00,32.1,19.4,28.75,SW,231,3.5,3.5,59,0.00,CLR,CLR,0.00,WeatherDisplay:10.37,2013-02-10 06:31:00,
2013-02-10 01:36:00,31.8,19.1,28.75,SW,231,2.3,2.3,59,0.00,CLR,CLR,0.00,WeatherDisplay:10.37,2013-02-10 06:36:00,
2013-02-10 01:42:00,31.7,19.4,28.75,SW,231,1.2,1.2,60,0.00,CLR,CLR,0.00,WeatherDisplay:10.37,2013-02-10 06:42:00,
2013-02-10 01:47:00,31.6,18.9,28.75,SW,231,1.2,0.0,59,0.00,CLR,CLR,0.00,WeatherDisplay:10.37,2013-02-10 06:47:00,
2013-02-10 01:52:00,31.5,18.8,28.75,SW,231,0.0,0.0,59,0.00,CLR,CLR,0.00,WeatherDisplay:10.37,2013-02-10 06:52:00,
2013-02-10 01:57:00,31.5,18.8,28.75,SW,232,3.5,3.5,59,0.00,CLR,CLR,0.00,WeatherDisplay:10.37,2013-02-10 06:57:00,
2013-02-10 02:02:00,31.5,19.2,28.75,SW,233,3.5,3.5,60,0.00,CLR,CLR,0.00,WeatherDisplay:10.37,2013-02-10 07:02:00,
2013-02-10 02:08:00,31.4,19.5,28.75,SW,215,4.0,4.0,61,0.00,CLR,CLR,0.00,WeatherDisplay:10.37,2013-02-10 07:08:00,
2013-02-10 02:13:00,31.4,19.1,28.75,SW,226,3.5,3.5,60,0.00,CLR,CLR,0.00,WeatherDisplay:10.37,2013-02-10 07:13:00,
2013-02-10 02:18:00,31.4,19.1,28.76,SW,224,4.0,4.0,60,0.00,CLR,CLR,0.00,WeatherDisplay:10.37,2013-02-10 07:18:00,
2013-02-10 02:23:00,31.4,19.1,28.76,SW,224,3.5,3.5,60,0.00,CLR,CLR,0.00,WeatherDisplay:10.37,2013-02-10 07:23:00,
2013-02-10 02:28:00,31.4,19.1,28.76,SW,226,3.5,3.5,60,0.00,CLR,CLR,0.00,WeatherDisplay:10.37,2013-02-10 07:28:00,
2013-02-10 02:34:00,31.6,19.3,28.77,SW,227,3.5,3.5,60,0.00,CLR,CLR,0.00,WeatherDisplay:10.37,2013-02-10 07:34:00,
2013-02-10 02:39:00,31.6,18.9,28.76,SW,224,3.5,3.5,59,0.00,CLR,CLR,0.00,WeatherDisplay:10.37,2013-02-10 07:39:00,
2013-02-10 02:44:00,31.7,19.0,28.76,SW,235,4.6,4.6,59,0.00,CLR,CLR,0.00,WeatherDisplay:10.37,2013-02-10 07:44:00,
2013-02-10 02:49:00,31.6,19.3,28.76,SW,235,3.5,3.5,60,0.00,CLR,CLR,0.00,WeatherDisplay:10.37,2013-02-10 07:49:00,
2013-02-10 02:54:00,31.5,19.2,28.77,SW,234,4.0,4.0,60,0.00,CLR,CLR,0.00,WeatherDisplay:10.37,2013-02-10 07:54:00,
2013-02-10 02:59:00,31.5,19.6,28.76,SW,236,3.5,3.5,61,0.00,CLR,CLR,0.00,WeatherDisplay:10.37,2013-02-10 07:59:00,
2013-02-10 03:05:00,31.5,19.2,28.77,SW,217,4.6,4.6,60,0.00,CLR,CLR,0.00,WeatherDisplay:10.37,2013-02-10 08:05:00,
2013-02-10 03:10:00,31.6,19.3,28.77,SW,224,4.0,4.0,60,0.00,CLR,CLR,0.00,WeatherDisplay:10.37,2013-02-10 08:10:00,
2013-02-10 03:15:00,31.6,19.3,28.77,SW,235,4.6,4.6,60,0.00,CLR,CLR,0.00,WeatherDisplay:10.37,2013-02-10 08:15:00,
2013-02-10 03:20:00,31.6,18.9,28.76,SW,227,4.0,4.0,59,0.00,CLR,CLR,0.00,WeatherDisplay:10.37,2013-02-10 08:20:00,
2013-02-10 03:26:00,31.7,19.0,28.76,SW,216,3.5,3.5,59,0.00,CLR,CLR,0.00,WeatherDisplay:10.37,2013-02-10 08:26:00,
2013-02-10 03:31:00,31.9,18.4,28.77,SW,229,4.6,4.6,57,0.00,CLR,CLR,0.00,WeatherDisplay:10.37,2013-02-10 08:31:00,
2013-02-10 03:36:00,31.9,18.8,28.76,SW,229,3.5,3.5,58,0.00,CLR,CLR,0.00,WeatherDisplay:10.37,2013-02-10 08:36:00,
2013-02-10 03:41:00,31.9,18.8,28.76,SW,231,4.6,4.6,58,0.00,CLR,CLR,0.00,WeatherDisplay:10.37,2013-02-10 08:41:00,
2013-02-10 03:46:00,31.9,18.8,28.76,WSW,247,4.6,4.6,58,0.00,CLR,CLR,0.00,WeatherDisplay:10.37,2013-02-10 08:46:00,
2013-02-10 03:51:00,32.0,18.9,28.75,WSW,244,4.6,4.6,58,0.00,CLR,CLR,0.00,WeatherDisplay:10.37,2013-02-10 08:51:00,
2013-02-10 03:57:00,32.0,18.9,28.76,WSW,245,3.5,3.5,58,0.00,CLR,CLR,0.00,WeatherDisplay:10.37,2013-02-10 08:57:00,
2013-02-10 04:02:00,32.1,18.6,28.75,WSW,245,3.5,3.5,57,0.00,CLR,CLR,0.00,WeatherDisplay:10.37,2013-02-10 09:02:00,
2013-02-10 04:07:00,32.2,18.7,28.76,WSW,252,3.5,3.5,57,0.00,CLR,CLR,0.00,WeatherDisplay:10.37,2013-02-10 09:07:00,
2013-02-10 04:12:00,32.2,18.7,28.76,WSW,252,3.5,3.5,57,0.00,CLR,CLR,0.00,WeatherDisplay:10.37,2013-02-10 09:12:00,
2013-02-10 04:17:00,32.1,18.6,28.76,WSW,252,3.5,3.5,57,0.00,CLR,CLR,0.00,WeatherDisplay:10.37,2013-02-10 09:17:00,
2013-02-10 04:23:00,31.9,18.4,28.76,WSW,252,3.5,3.5,57,0.00,CLR,CLR,0.00,WeatherDisplay:10.37,2013-02-10 09:23:00,
2013-02-10 04:28:00,31.8,18.7,28.76,WSW,252,3.5,3.5,58,0.00,CLR,CLR,0.00,WeatherDisplay:10.37,2013-02-10 09:28:00,
2013-02-10 04:33:00,31.6,18.5,28.76,WSW,252,4.0,4.0,58,0.00,CLR,CLR,0.00,WeatherDisplay:10.37,2013-02-10 09:33:00,
2013-02-10 04:38:00,31.6,18.5,28.76,WSW,253,3.5,3.5,58,0.00,CLR,CLR,0.00,WeatherDisplay:10.37,2013-02-10 09:38:00,
2013-02-10 04:43:00,31.6,18.5,28.76,WSW,243,2.3,2.3,58,0.00,CLR,CLR,0.00,WeatherDisplay:10.37,2013-02-10 09:43:00,
2013-02-10 04:49:00,31.6,18.5,28.76,WSW,243,3.5,3.5,58,0.00,CLR,CLR,0.00,WeatherDisplay:10.37,2013-02-10 09:49:00,
2013-02-10 04:54:00,31.6,18.5,28.76,WSW,244,3.5,3.5,58,0.00,CLR,CLR,0.00,WeatherDisplay:10.37,2013-02-10 09:54:00,
2013-02-10 04:59:00,31.7,19.0,28.77,WSW,245,5.0,5.0,59,0.00,CLR,CLR,0.00,WeatherDisplay:10.37,2013-02-10 09:59:00,
2013-02-10 05:04:00,31.7,18.6,28.77,WSW,245,3.5,3.5,58,0.00,CLR,CLR,0.00,WeatherDisplay:10.37,2013-02-10 10:04:00,
2013-02-10 05:09:00,31.7,18.6,28.76,WSW,245,3.5,3.5,58,0.00,CLR,CLR,0.00,WeatherDisplay:10.37,2013-02-10 10:09:00,
2013-02-10 05:15:00,31.8,18.7,28.76,WSW,245,3.5,3.5,58,0.00,CLR,CLR,0.00,WeatherDisplay:10.37,2013-02-10 10:15:00,
2013-02-10 05:20:00,31.9,18.8,28.76,WSW,245,3.5,3.5,58,0.00,CLR,CLR,0.00,WeatherDisplay:10.37,2013-02-10 10:20:00,
2013-02-10 05:25:00,31.9,18.8,28.77,WSW,245,3.5,3.5,58,0.00,CLR,CLR,0.00,WeatherDisplay:10.37,2013-02-10 10:25:00,
2013-02-10 05:30:00,32.0,18.9,28.77,WSW,245,3.5,3.5,58,0.00,CLR,CLR,0.00,WeatherDisplay:10.37,2013-02-10 10:30:00,
2013-02-10 05:35:00,32.1,18.6,28.76,WSW,245,2.3,2.3,57,0.00,CLR,CLR,0.00,WeatherDisplay:10.37,2013-02-10 10:35:00,
2013-02-10 05:41:00,32.1,19.0,28.77,WSW,245,0.0,0.0,58,0.00,CLR,CLR,0.00,WeatherDisplay:10.37,2013-02-10 10:41:00,
2013-02-10 05:46:00,32.1,19.0,28.77,WSW,245,2.3,2.3,58,0.00,CLR,CLR,0.00,WeatherDisplay:10.37,2013-02-10 10:46:00,
2013-02-10 05:51:00,32.0,18.9,28.78,WSW,245,2.3,2.3,58,0.00,CLR,CLR,0.00,WeatherDisplay:10.37,2013-02-10 10:51:00,
2013-02-10 05:56:00,32.2,18.7,28.78,WSW,245,2.3,2.3,57,0.00,CLR,CLR,0.00,WeatherDisplay:10.37,2013-02-10 10:56:00,
2013-02-10 06:01:00,32.3,19.2,28.78,WSW,245,2.3,2.3,58,0.00,CLR,CLR,0.00,WeatherDisplay:10.37,2013-02-10 11:01:00,
2013-02-10 06:07:00,32.2,19.5,28.78,WSW,245,0.0,0.0,59,0.00,CLR,CLR,0.00,WeatherDisplay:10.37,2013-02-10 11:07:00,
2013-02-10 06:12:00,32.2,19.1,28.78,WSW,245,0.0,0.0,58,0.00,CLR,CLR,0.00,WeatherDisplay:10.37,2013-02-10 11:12:00,
2013-02-10 06:17:00,32.1,19.0,28.78,WSW,245,0.0,0.0,58,0.00,CLR,CLR,0.00,WeatherDisplay:10.37,2013-02-10 11:17:00,
2013-02-10 06:22:00,32.2,18.2,28.78,WSW,245,0.0,0.0,56,0.00,CLR,CLR,0.00,WeatherDisplay:10.37,2013-02-10 11:22:00,
2013-02-10 06:27:00,32.4,18.0,28.78,WSW,245,0.0,0.0,55,0.00,CLR,CLR,0.00,WeatherDisplay:10.37,2013-02-10 11:27:00,
2013-02-10 06:33:00,32.6,17.8,28.79,WSW,245,0.0,0.0,54,0.00,CLR,CLR,0.00,WeatherDisplay:10.37,2013-02-10 11:33:00,
2013-02-10 06:38:00,32.7,17.9,28.79,WSW,245,1.2,0.0,54,0.00,CLR,CLR,0.00,WeatherDisplay:10.37,2013-02-10 11:38:00,
2013-02-10 06:43:00,32.8,18.0,28.79,WSW,245,0.0,0.0,54,0.00,CLR,CLR,0.00,WeatherDisplay:10.37,2013-02-10 11:43:00,
2013-02-10 06:48:00,32.9,18.1,28.79,WSW,245,0.0,0.0,54,0.00,CLR,CLR,0.00,WeatherDisplay:10.37,2013-02-10 11:48:00,
2013-02-10 06:53:00,32.9,18.1,28.79,WSW,245,3.5,3.5,54,0.00,CLR,CLR,0.00,WeatherDisplay:10.37,2013-02-10 11:53:00,
2013-02-10 06:59:00,32.9,18.5,28.84,WSW,246,0.0,0.0,55,0.00,CLR,CLR,0.00,WeatherDisplay:10.37,2013-02-10 11:59:00,
2013-02-10 07:04:00,32.9,18.5,28.84,WSW,245,0.0,0.0,55,0.00,CLR,CLR,0.00,WeatherDisplay:10.37,2013-02-10 12:04:00,
2013-02-10 07:09:00,32.8,18.4,28.84,WSW,246,2.3,2.3,55,0.00,CLR,CLR,0.00,WeatherDisplay:10.37,2013-02-10 12:09:00,
2013-02-10 07:14:00,32.7,18.7,28.84,WSW,251,3.5,3.5,56,0.00,CLR,CLR,0.00,WeatherDisplay:10.37,2013-02-10 12:14:00,
2013-02-10 07:19:00,32.6,18.6,28.85,West,260,3.5,3.5,56,0.00,CLR,CLR,0.00,WeatherDisplay:10.37,2013-02-10 12:19:00,
2013-02-10 07:24:00,32.6,18.6,29.28,NE,36,3.5,3.5,56,0.00,CLR,CLR,0.00,WeatherDisplay:10.37,2013-02-10 12:24:00,
2013-02-10 07:29:00,32.6,18.2,29.29,NE,37,3.5,3.5,55,0.00,CLR,CLR,0.00,WeatherDisplay:10.37,2013-02-10 12:29:00,
2013-02-10 07:34:00,32.5,18.5,29.25,NE,37,3.5,3.5,56,0.00,CLR,CLR,0.00,WeatherDisplay:10.37,2013-02-10 12:34:00,
2013-02-10 07:40:00,32.5,18.5,29.26,NE,37,3.5,3.5,56,0.00,CLR,CLR,0.00,WeatherDisplay:10.37,2013-02-10 12:40:00,
2013-02-10 07:45:00,32.5,18.5,29.25,NE,37,2.3,2.3,56,0.00,CLR,CLR,0.00,WeatherDisplay:10.37,2013-02-10 12:45:00,
2013-02-10 07:50:00,32.4,18.4,29.27,NE,38,2.3,2.3,56,0.00,CLR,CLR,0.00,WeatherDisplay:10.37,2013-02-10 12:50:00,
2013-02-10 07:55:00,32.4,18.8,29.27,NE,38,3.5,3.5,57,0.00,CLR,CLR,0.00,WeatherDisplay:10.37,2013-02-10 12:55:00,
2013-02-10 08:00:00,32.4,19.3,29.20,NE,48,3.5,3.5,58,0.00,CLR,CLR,0.00,WeatherDisplay:10.37,2013-02-10 13:00:00,
2013-02-10 08:05:00,32.4,18.8,29.28,NE,48,3.5,3.5,57,0.00,CLR,CLR,0.00,WeatherDisplay:10.37,2013-02-10 13:05:00,
2013-02-10 08:10:00,32.5,18.9,29.00,NE,42,3.5,3.5,57,0.00,CLR,CLR,0.00,WeatherDisplay:10.37,2013-02-10 13:10:00,
2013-02-10 08:16:00,32.6,19.0,28.94,NNE,17,3.5,3.5,57,0.00,CLR,CLR,0.00,WeatherDisplay:10.37,2013-02-10 13:16:00,
2013-02-10 08:21:00,32.7,19.5,28.98,NNE,17,3.5,3.5,58,0.00,CLR,CLR,0.00,WeatherDisplay:10.37,2013-02-10 13:21:00,
2013-02-10 08:26:00,32.7,19.5,29.33,NNE,14,3.5,3.5,58,0.00,CLR,CLR,0.00,WeatherDisplay:10.37,2013-02-10 13:26:00,
2013-02-10 08:31:00,32.7,19.5,29.30,NNE,15,3.5,3.5,58,0.00,CLR,CLR,0.00,WeatherDisplay:10.37,2013-02-10 13:31:00,
2013-02-10 08:36:00,32.9,19.7,28.95,NNE,18,2.3,2.3,58,0.00,CLR,CLR,0.00,WeatherDisplay:10.37,2013-02-10 13:36:00,
2013-02-10 08:41:00,33.0,20.2,29.00,NNE,18,0.0,0.0,59,0.00,CLR,CLR,0.00,WeatherDisplay:10.37,2013-02-10 13:41:00,
2013-02-10 08:47:00,33.1,19.9,28.99,NNE,19,3.5,3.5,58,0.00,CLR,CLR,0.00,WeatherDisplay:10.37,2013-02-10 13:47:00,
2013-02-10 08:52:00,33.1,20.3,28.99,NNE,26,4.0,4.0,59,0.00,CLR,CLR,0.00,WeatherDisplay:10.37,2013-02-10 13:52:00,
2013-02-10 08:57:00,33.2,20.8,29.00,NNE,15,3.5,3.5,60,0.00,CLR,CLR,0.00,WeatherDisplay:10.37,2013-02-10 13:57:00,
2013-02-10 09:02:00,33.5,21.1,28.99,NE,49,3.5,3.5,60,0.00,CLR,CLR,0.00,WeatherDisplay:10.37,2013-02-10 14:02:00,
2013-02-10 09:07:00,33.6,21.2,29.01,North,5,3.5,3.5,60,0.00,CLR,CLR,0.00,WeatherDisplay:10.37,2013-02-10 14:07:00,
2013-02-10 09:12:00,33.6,21.2,28.99,North,0,3.5,3.5,60,0.00,CLR,CLR,0.00,WeatherDisplay:10.37,2013-02-10 14:12:00,
2013-02-10 09:18:00,33.6,21.6,28.98,NNE,12,5.0,5.0,61,0.00,CLR,CLR,0.00,WeatherDisplay:10.37,2013-02-10 14:18:00,
2013-02-10 09:23:00,33.6,20.8,29.01,NE,39,4.6,4.6,59,0.00,CLR,CLR,0.00,WeatherDisplay:10.37,2013-02-10 14:23:00,
2013-02-10 09:28:00,33.6,21.2,29.04,NE,38,4.0,4.0,60,0.00,CLR,CLR,0.00,WeatherDisplay:10.37,2013-02-10 14:28:00,
2013-02-10 09:33:00,33.7,20.5,29.06,NNE,31,3.5,3.5,58,0.00,CLR,CLR,0.00,WeatherDisplay:10.37,2013-02-10 14:33:00,
2013-02-10 09:39:00,34.0,20.3,29.02,North,353,3.5,3.5,57,0.00,CLR,CLR,0.00,WeatherDisplay:10.37,2013-02-10 14:39:00,
2013-02-10 09:44:00,34.1,20.0,29.02,North,8,3.5,3.5,56,0.00,CLR,CLR,0.00,WeatherDisplay:10.37,2013-02-10 14:44:00,
2013-02-10 09:49:00,34.1,20.0,29.05,NNE,12,3.5,3.5,56,0.00,CLR,CLR,0.00,WeatherDisplay:10.37,2013-02-10 14:49:00,
2013-02-10 09:54:00,34.3,20.6,29.02,NNE,12,3.5,3.5,57,0.00,CLR,CLR,0.00,WeatherDisplay:10.37,2013-02-10 14:54:00,
2013-02-10 09:59:00,34.8,20.7,29.09,NNE,12,0.0,0.0,56,0.00,CLR,CLR,0.00,WeatherDisplay:10.37,2013-02-10 14:59:00,
2013-02-10 10:05:00,35.9,22.1,29.03,East,99,2.3,2.3,57,0.00,CLR,CLR,0.00,WeatherDisplay:10.37,2013-02-10 15:05:00,
2013-02-10 10:10:00,36.8,22.1,28.98,North,1,3.5,3.5,55,0.00,CLR,CLR,0.00,WeatherDisplay:10.37,2013-02-10 15:10:00,
2013-02-10 10:15:00,37.8,22.2,28.99,NE,36,3.5,3.5,53,0.00,CLR,CLR,0.00,WeatherDisplay:10.37,2013-02-10 15:15:00,
2013-02-10 10:20:00,37.9,21.8,28.97,ESE,120,2.3,2.3,52,0.00,CLR,CLR,0.00,WeatherDisplay:10.37,2013-02-10 15:20:00,
2013-02-10 10:26:00,37.7,21.2,28.96,East,89,6.9,6.9,51,0.00,CLR,CLR,0.00,WeatherDisplay:10.37,2013-02-10 15:26:00,
2013-02-10 10:31:00,37.3,20.8,28.96,East,82,3.5,3.5,51,0.00,CLR,CLR,0.00,WeatherDisplay:10.37,2013-02-10 15:31:00,
2013-02-10 10:36:00,37.6,22.4,28.99,ENE,78,2.3,2.3,54,0.00,CLR,CLR,0.00,WeatherDisplay:10.37,2013-02-10 15:36:00,
2013-02-10 10:41:00,38.2,22.6,28.98,ENE,58,2.3,2.3,53,0.00,CLR,CLR,0.00,WeatherDisplay:10.37,2013-02-10 15:41:00,
2013-02-10 10:46:00,38.7,23.5,28.98,North,10,3.5,3.5,54,0.00,CLR,CLR,0.00,WeatherDisplay:10.37,2013-02-10 15:46:00,
2013-02-10 10:52:00,38.9,22.3,28.99,East,88,4.0,4.0,51,0.00,CLR,CLR,0.00,WeatherDisplay:10.37,2013-02-10 15:52:00,
2013-02-10 10:57:00,38.9,22.3,29.00,ENE,75,3.5,3.5,51,0.00,CLR,CLR,0.00,WeatherDisplay:10.37,2013-02-10 15:57:00,
2013-02-10 11:02:00,39.1,22.9,29.01,North,6,3.5,3.5,52,0.00,CLR,CLR,0.00,WeatherDisplay:10.37,2013-02-10 16:02:00,
2013-02-10 11:08:00,39.2,23.0,29.28,WNW,287,6.0,6.0,52,0.00,CLR,CLR,0.00,WeatherDisplay:10.37,2013-02-10 16:08:00,
2013-02-10 11:13:00,39.4,22.8,29.33,East,82,3.5,3.5,51,0.00,CLR,CLR,0.00,WeatherDisplay:10.37,2013-02-10 16:13:00,
2013-02-10 11:18:00,39.5,23.8,29.37,South,178,3.5,3.5,53,0.00,CLR,CLR,0.00,WeatherDisplay:10.37,2013-02-10 16:18:00,
2013-02-10 11:23:00,40.0,23.8,29.07,ESE,103,3.5,3.5,52,0.00,CLR,CLR,0.00,WeatherDisplay:10.37,2013-02-10 16:23:00,
2013-02-10 11:29:00,40.6,24.3,29.05,ENE,65,3.5,3.5,52,0.00,CLR,CLR,0.00,WeatherDisplay:10.37,2013-02-10 16:29:00,
2013-02-10 11:34:00,41.1,24.8,29.05,ESE,110,3.5,3.5,52,0.00,CLR,CLR,0.00,WeatherDisplay:10.37,2013-02-10 16:34:00,
2013-02-10 11:39:00,41.3,25.0,29.28,SE,139,3.5,3.5,52,0.00,CLR,CLR,0.00,WeatherDisplay:10.37,2013-02-10 16:39:00,
2013-02-10 11:44:00,41.9,25.1,29.36,South,175,5.8,5.8,51,0.00,CLR,CLR,0.00,WeatherDisplay:10.37,2013-02-10 16:44:00,
2013-02-10 11:49:00,42.3,25.4,29.34,SE,145,2.3,2.3,51,0.00,CLR,CLR,0.00,WeatherDisplay:10.37,2013-02-10 16:49:00,
2013-02-10 11:55:00,42.5,25.1,29.29,ESE,114,3.5,3.5,50,0.00,CLR,CLR,0.00,WeatherDisplay:10.37,2013-02-10 16:55:00,
2013-02-10 12:00:00,42.5,24.7,29.29,SSE,150,4.0,4.0,49,0.00,CLR,CLR,0.00,WeatherDisplay:10.37,2013-02-10 17:00:00,
2013-02-10 12:05:00,42.8,24.9,29.06,ENE,74,6.0,6.0,49,0.00,CLR,CLR,0.00,WeatherDisplay:10.37,2013-02-10 17:05:00,
2013-02-10 12:10:00,42.9,25.5,28.92,South,189,4.6,4.6,50,0.00,CLR,CLR,0.00,WeatherDisplay:10.37,2013-02-10 17:10:00,
2013-02-10 12:16:00,43.3,24.9,29.14,SSE,167,4.0,4.0,48,0.00,CLR,CLR,0.00,WeatherDisplay:10.37,2013-02-10 17:16:00,
2013-02-10 12:21:00,43.7,25.3,29.16,SSW,203,2.0,2.0,48,0.00,CLR,CLR,0.00,WeatherDisplay:10.37,2013-02-10 17:21:00,
2013-02-10 12:26:00,44.3,25.3,29.25,SSW,203,13.0,13.0,47,0.00,CLR,CLR,0.00,WeatherDisplay:10.37,2013-02-10 17:26:00,
2013-02-10 12:31:00,44.8,25.8,29.30,SSW,207,6.9,6.9,47,0.00,CLR,CLR,0.00,WeatherDisplay:10.37,2013-02-10 17:31:00,
2013-02-10 12:36:00,45.3,25.7,29.27,ESE,117,4.6,4.6,46,0.00,CLR,CLR,0.00,WeatherDisplay:10.37,2013-02-10 17:36:00,
2013-02-10 12:42:00,45.3,25.2,29.26,East,81,4.6,4.6,45,0.00,CLR,CLR,0.00,WeatherDisplay:10.37,2013-02-10 17:42:00,
2013-02-10 12:47:00,45.2,25.6,29.30,SW,215,6.9,6.9,46,0.00,CLR,CLR,0.00,WeatherDisplay:10.37,2013-02-10 17:47:00,
2013-02-10 12:52:00,45.6,26.0,29.18,SW,219,3.5,3.5,46,0.00,CLR,CLR,0.00,WeatherDisplay:10.37,2013-02-10 17:52:00,
2013-02-10 12:57:00,45.9,26.3,29.20,South,176,8.1,8.1,46,0.00,CLR,CLR,0.00,WeatherDisplay:10.37,2013-02-10 17:57:00,
2013-02-10 13:03:00,45.9,25.7,29.22,SE,133,4.6,4.6,45,0.00,CLR,CLR,0.00,WeatherDisplay:10.37,2013-02-10 18:03:00,
2013-02-10 13:08:00,46.0,26.4,28.75,South,179,6.9,6.9,46,0.00,CLR,CLR,0.00,WeatherDisplay:10.37,2013-02-10 18:08:00,
2013-02-10 13:13:00,46.3,26.1,28.75,South,187,11.5,11.5,45,0.00,CLR,CLR,0.00,WeatherDisplay:10.37,2013-02-10 18:13:00,
2013-02-10 13:18:00,46.4,26.2,28.74,SSW,202,5.0,5.0,45,0.00,CLR,CLR,0.00,WeatherDisplay:10.37,2013-02-10 18:18:00,
2013-02-10 13:23:00,46.6,25.8,28.74,SSE,153,3.5,3.5,44,0.00,CLR,CLR,0.00,WeatherDisplay:10.37,2013-02-10 18:23:00,
2013-02-10 13:29:00,46.7,26.5,28.74,SSE,153,5.8,5.8,45,0.00,CLR,CLR,0.00,WeatherDisplay:10.37,2013-02-10 18:29:00,
2013-02-10 13:34:00,46.9,26.6,28.74,SE,135,4.6,4.6,45,0.00,CLR,CLR,0.00,WeatherDisplay:10.37,2013-02-10 18:34:00,
2013-02-10 13:39:00,47.0,27.3,28.73,East,98,3.5,3.5,46,0.00,CLR,CLR,0.00,WeatherDisplay:10.37,2013-02-10 18:39:00,
2013-02-10 13:44:00,47.4,27.6,28.73,SSW,203,11.5,11.5,46,0.00,CLR,CLR,0.00,WeatherDisplay:10.37,2013-02-10 18:44:00,
2013-02-10 13:50:00,47.9,27.6,28.73,SE,137,8.1,8.1,45,0.00,CLR,CLR,0.00,WeatherDisplay:10.37,2013-02-10 18:50:00,
2013-02-10 13:55:00,48.3,27.4,28.73,SSE,164,11.5,11.5,44,0.00,CLR,CLR,0.00,WeatherDisplay:10.37,2013-02-10 18:55:00,
2013-02-10 14:00:00,48.4,27.5,28.72,SE,129,4.6,4.6,44,0.00,CLR,CLR,0.00,WeatherDisplay:10.37,2013-02-10 19:00:00,
2013-02-10 14:05:00,48.6,27.6,28.72,SSE,167,5.8,5.8,44,0.00,CLR,CLR,0.00,WeatherDisplay:10.37,2013-02-10 19:05:00,
2013-02-10 14:11:00,48.8,28.4,28.72,SSW,194,10.4,10.4,45,0.00,CLR,CLR,0.00,WeatherDisplay:10.37,2013-02-10 19:11:00,
2013-02-10 14:16:00,49.1,28.7,28.71,South,184,13.8,13.8,45,0.00,CLR,CLR,0.00,WeatherDisplay:10.37,2013-02-10 19:16:00,
2013-02-10 14:21:00,49.2,27.6,28.70,SSE,155,5.8,5.8,43,0.00,CLR,CLR,0.00,WeatherDisplay:10.37,2013-02-10 19:21:00,
2013-02-10 14:26:00,49.3,27.7,28.70,SSW,213,4.6,4.6,43,0.00,CLR,CLR,0.00,WeatherDisplay:10.37,2013-02-10 19:26:00,
2013-02-10 14:31:00,49.1,27.5,28.70,South,171,6.0,6.0,43,0.00,CLR,CLR,0.00,WeatherDisplay:10.37,2013-02-10 19:31:00,
2013-02-10 14:36:00,49.2,27.6,28.69,SSE,155,4.6,4.6,43,0.00,CLR,CLR,0.00,WeatherDisplay:10.37,2013-02-10 19:36:00,
2013-02-10 14:42:00,49.3,27.7,28.69,South,173,2.3,2.3,43,0.00,CLR,CLR,0.00,WeatherDisplay:10.37,2013-02-10 19:42:00,
2013-02-10 14:47:00,49.2,27.6,28.68,East,96,8.1,8.1,43,0.00,CLR,CLR,0.00,WeatherDisplay:10.37,2013-02-10 19:47:00,
2013-02-10 14:52:00,48.8,27.3,28.68,South,169,6.9,6.9,43,0.00,CLR,CLR,0.00,WeatherDisplay:10.37,2013-02-10 19:52:00,
2013-02-10 14:57:00,48.9,27.9,28.68,SSW,207,8.1,8.1,44,0.00,CLR,CLR,0.00,WeatherDisplay:10.37,2013-02-10 19:57:00,
2013-02-10 15:02:00,49.0,27.5,28.68,East,91,3.5,3.5,43,0.00,CLR,CLR,0.00,WeatherDisplay:10.37,2013-02-10 20:02:00,
2013-02-10 15:08:00,49.0,28.0,28.69,East,85,4.6,4.6,44,0.00,CLR,CLR,0.00,WeatherDisplay:10.37,2013-02-10 20:08:00,
2013-02-10 15:13:00,49.0,26.9,28.68,SSE,147,5.8,5.8,42,0.00,CLR,CLR,0.00,WeatherDisplay:10.37,2013-02-10 20:13:00,
2013-02-10 15:18:00,48.9,26.8,28.69,South,177,3.5,3.5,42,0.00,CLR,CLR,0.00,WeatherDisplay:10.37,2013-02-10 20:18:00,
2013-02-10 15:23:00,49.1,28.1,28.69,East,90,4.6,4.6,44,0.00,CLR,CLR,0.00,WeatherDisplay:10.37,2013-02-10 20:23:00,
2013-02-10 15:28:00,49.5,27.9,28.68,SSE,149,4.6,4.6,43,0.00,CLR,CLR,0.00,WeatherDisplay:10.37,2013-02-10 20:28:00,
2013-02-10 15:34:00,49.8,28.2,28.68,SSE,168,8.1,8.1,43,0.00,CLR,CLR,0.00,WeatherDisplay:10.37,2013-02-10 20:34:00,
2013-02-10 15:39:00,49.9,27.1,28.68,SE,140,5.8,5.8,41,0.00,CLR,CLR,0.00,WeatherDisplay:10.37,2013-02-10 20:39:00,
2013-02-10 15:44:00,49.8,27.0,28.69,SSE,154,6.0,6.0,41,0.00,CLR,CLR,0.00,WeatherDisplay:10.37,2013-02-10 20:44:00,
2013-02-10 15:49:00,49.7,26.3,28.69,ENE,70,9.0,9.0,40,0.00,CLR,CLR,0.00,WeatherDisplay:10.37,2013-02-10 20:49:00,
2013-02-10 15:54:00,49.5,26.7,28.69,SE,144,3.5,3.5,41,0.00,CLR,CLR,0.00,WeatherDisplay:10.37,2013-02-10 20:54:00,
2013-02-10 15:59:00,49.5,26.7,28.69,SSW,195,2.3,2.3,41,0.00,CLR,CLR,0.00,WeatherDisplay:10.37,2013-02-10 20:59:00,
2013-02-10 16:05:00,49.5,26.7,28.68,SSW,192,2.3,2.3,41,0.00,CLR,CLR,0.00,WeatherDisplay:10.37,2013-02-10 21:05:00,
2013-02-10 16:10:00,49.4,26.7,28.68,South,190,4.0,4.0,41,0.00,CLR,CLR,0.00,WeatherDisplay:10.37,2013-02-10 21:10:00,
2013-02-10 16:15:00,49.3,26.6,28.68,South,174,1.2,1.2,41,0.00,CLR,CLR,0.00,WeatherDisplay:10.37,2013-02-10 21:15:00,
2013-02-10 16:20:00,49.0,26.3,28.66,SSE,150,2.3,2.3,41,0.00,CLR,CLR,0.00,WeatherDisplay:10.37,2013-02-10 21:20:00,
2013-02-10 16:25:00,48.8,26.1,28.67,South,175,3.5,3.5,41,0.00,CLR,CLR,0.00,WeatherDisplay:10.37,2013-02-10 21:25:00,
2013-02-10 16:30:00,48.7,26.0,28.67,ESE,115,3.5,3.5,41,0.00,CLR,CLR,0.00,WeatherDisplay:10.37,2013-02-10 21:30:00,
2013-02-10 16:36:00,48.5,26.4,28.66,SSE,156,4.6,4.6,42,0.00,CLR,CLR,0.00,WeatherDisplay:10.37,2013-02-10 21:36:00,
2013-02-10 16:41:00,48.5,26.4,28.66,SSE,147,3.5,3.5,42,0.00,CLR,CLR,0.00,WeatherDisplay:10.37,2013-02-10 21:41:00,
2013-02-10 16:46:00,48.4,26.9,28.67,SW,221,3.5,3.5,43,0.00,CLR,CLR,0.00,WeatherDisplay:10.37,2013-02-10 21:46:00,
2013-02-10 16:51:00,48.3,26.8,28.67,South,189,4.6,4.6,43,0.00,CLR,CLR,0.00,WeatherDisplay:10.37,2013-02-10 21:51:00,
2013-02-10 16:56:00,48.2,26.2,28.67,SSW,206,4.6,4.6,42,0.00,CLR,CLR,0.00,WeatherDisplay:10.37,2013-02-10 21:56:00,
2013-02-10 17:01:00,48.0,25.4,28.67,South,182,6.9,6.9,41,0.00,CLR,CLR,0.00,WeatherDisplay:10.37,2013-02-10 22:01:00,
2013-02-10 17:07:00,47.8,25.8,28.67,SSE,166,8.0,8.0,42,0.00,CLR,CLR,0.00,WeatherDisplay:10.37,2013-02-10 22:07:00,
2013-02-10 17:12:00,47.6,25.6,28.67,SSE,166,3.5,3.5,42,0.00,CLR,CLR,0.00,WeatherDisplay:10.37,2013-02-10 22:12:00,
2013-02-10 17:17:00,47.3,25.9,28.66,South,182,1.0,1.0,43,0.00,CLR,CLR,0.00,WeatherDisplay:10.37,2013-02-10 22:17:00,
2013-02-10 17:22:00,47.0,25.6,28.66,South,181,2.3,2.3,43,0.00,CLR,CLR,0.00,WeatherDisplay:10.37,2013-02-10 22:22:00,
2013-02-10 17:28:00,46.8,25.5,28.65,SE,128,0.0,0.0,43,0.00,CLR,CLR,0.00,WeatherDisplay:10.37,2013-02-10 22:28:00,
2013-02-10 17:33:00,46.6,25.3,28.65,SE,133,2.3,2.3,43,0.00,CLR,CLR,0.00,WeatherDisplay:10.37,2013-02-10 22:33:00,
2013-02-10 17:38:00,46.4,25.6,28.65,SE,132,1.2,0.0,44,0.00,CLR,CLR,0.00,WeatherDisplay:10.37,2013-02-10 22:38:00,
2013-02-10 17:43:00,46.2,25.5,28.66,SE,134,2.3,2.3,44,0.00,CLR,CLR,0.00,WeatherDisplay:10.37,2013-02-10 22:43:00,
2013-02-10 17:48:00,46.0,25.8,28.66,SE,134,0.0,1.0,45,0.00,CLR,CLR,0.00,WeatherDisplay:10.37,2013-02-10 22:48:00,
2013-02-10 17:53:00,45.8,25.6,28.66,SE,136,1.2,1.2,45,0.00,CLR,CLR,0.00,WeatherDisplay:10.37,2013-02-10 22:53:00,
2013-02-10 17:59:00,45.4,25.3,28.66,SE,136,1.2,1.2,45,0.00,CLR,CLR,0.00,WeatherDisplay:10.37,2013-02-10 22:59:00,
2013-02-10 18:04:00,45.2,25.6,28.66,SE,136,0.0,0.0,46,0.00,CLR,CLR,0.00,WeatherDisplay:10.37,2013-02-10 23:04:00,
2013-02-10 18:09:00,44.8,25.3,28.66,SE,136,0.0,0.0,46,0.00,CLR,CLR,0.00,WeatherDisplay:10.37,2013-02-10 23:09:00,
2013-02-10 18:14:00,44.6,25.1,28.66,SE,136,0.0,0.0,46,0.00,CLR,CLR,0.00,WeatherDisplay:10.37,2013-02-10 23:14:00,
2013-02-10 18:20:00,44.4,25.4,28.66,SE,136,0.0,0.0,47,0.00,CLR,CLR,0.00,WeatherDisplay:10.37,2013-02-10 23:20:00,
2013-02-10 18:25:00,44.3,25.8,28.67,SE,136,0.0,0.0,48,0.00,CLR,CLR,0.00,WeatherDisplay:10.37,2013-02-10 23:25:00,
2013-02-10 18:30:00,44.1,25.6,28.67,SE,136,0.0,0.0,48,0.00,CLR,CLR,0.00,WeatherDisplay:10.37,2013-02-10 23:30:00,
2013-02-10 18:35:00,44.0,25.5,28.68,SE,136,0.0,0.0,48,0.00,CLR,CLR,0.00,WeatherDisplay:10.37,2013-02-10 23:35:00,
2013-02-10 18:41:00,43.8,25.4,28.69,SE,136,0.0,0.0,48,0.00,CLR,CLR,0.00,WeatherDisplay:10.37,2013-02-10 23:41:00,
2013-02-10 18:46:00,43.7,25.3,28.68,SE,136,0.0,0.0,48,0.00,CLR,CLR,0.00,WeatherDisplay:10.37,2013-02-10 23:46:00,
2013-02-10 18:51:00,43.6,25.2,28.68,SE,136,0.0,0.0,48,0.00,CLR,CLR,0.00,WeatherDisplay:10.37,2013-02-10 23:51:00,
2013-02-10 18:56:00,43.5,25.6,28.68,SE,136,0.0,0.0,49,0.00,CLR,CLR,0.00,WeatherDisplay:10.37,2013-02-10 23:56:00,
2013-02-10 19:01:00,43.5,25.6,28.67,SE,136,0.0,0.0,49,0.00,CLR,CLR,0.00,WeatherDisplay:10.37,2013-02-11 00:01:00,
2013-02-10 19:06:00,43.4,25.5,28.67,SE,136,0.0,0.0,49,0.00,CLR,CLR,0.00,WeatherDisplay:10.37,2013-02-11 00:06:00,
2013-02-10 19:12:00,43.4,25.5,28.67,SE,136,0.0,0.0,49,0.00,CLR,CLR,0.00,WeatherDisplay:10.37,2013-02-11 00:12:00,
2013-02-10 19:17:00,43.4,26.0,28.67,SE,136,0.0,0.0,50,0.00,CLR,CLR,0.00,WeatherDisplay:10.37,2013-02-11 00:17:00,
2013-02-10 19:22:00,43.4,26.5,28.67,SE,136,0.0,0.0,51,0.00,CLR,CLR,0.00,WeatherDisplay:10.37,2013-02-11 00:22:00,
2013-02-10 19:27:00,43.3,26.4,28.67,SE,136,0.0,0.0,51,0.00,CLR,CLR,0.00,WeatherDisplay:10.37,2013-02-11 00:27:00,
2013-02-10 19:32:00,43.3,26.4,28.67,SE,136,0.0,0.0,51,0.00,CLR,CLR,0.00,WeatherDisplay:10.37,2013-02-11 00:32:00,
2013-02-10 19:38:00,43.3,26.4,28.67,SE,136,0.0,0.0,51,0.00,CLR,CLR,0.00,WeatherDisplay:10.37,2013-02-11 00:38:00,
2013-02-10 19:43:00,43.3,26.4,28.67,SE,136,0.0,0.0,51,0.00,CLR,CLR,0.00,WeatherDisplay:10.37,2013-02-11 00:43:00,
2013-02-10 19:48:00,43.3,26.4,28.67,SE,136,1.2,0.0,51,0.00,CLR,CLR,0.00,WeatherDisplay:10.37,2013-02-11 00:48:00,
2013-02-10 19:53:00,43.3,27.3,28.68,SE,136,0.0,0.0,53,0.00,CLR,CLR,0.00,WeatherDisplay:10.37,2013-02-11 00:53:00,
2013-02-10 19:59:00,43.3,26.4,28.68,SE,136,0.0,0.0,51,0.00,CLR,CLR,0.00,WeatherDisplay:10.37,2013-02-11 00:59:00,
2013-02-10 20:04:00,43.3,26.4,28.69,SE,136,0.0,0.0,51,0.00,CLR,CLR,0.00,WeatherDisplay:10.37,2013-02-11 01:04:00,
2013-02-10 20:09:00,43.3,26.4,28.68,SE,136,0.0,0.0,51,0.00,CLR,CLR,0.00,WeatherDisplay:10.37,2013-02-11 01:09:00,
2013-02-10 20:14:00,43.3,26.4,28.68,SE,136,0.0,0.0,51,0.00,CLR,CLR,0.00,WeatherDisplay:10.37,2013-02-11 01:14:00,
2013-02-10 20:19:00,43.4,27.4,28.69,SE,136,2.3,2.3,53,0.00,CLR,CLR,0.00,WeatherDisplay:10.37,2013-02-11 01:19:00,
2013-02-10 20:25:00,43.5,27.5,28.68,SE,136,0.0,0.0,53,0.00,CLR,CLR,0.00,WeatherDisplay:10.37,2013-02-11 01:25:00,
2013-02-10 20:30:00,43.5,27.9,28.68,SE,136,0.0,0.0,54,0.00,CLR,CLR,0.00,WeatherDisplay:10.37,2013-02-11 01:30:00,
2013-02-10 20:35:00,43.3,29.5,28.69,SE,136,0.0,0.0,58,0.00,CLR,CLR,0.01,WeatherDisplay:10.37,2013-02-11 01:35:00,
2013-02-10 20:40:00,42.9,30.8,28.68,SE,136,0.0,0.0,62,0.01,RA,RA,0.01,WeatherDisplay:10.37,2013-02-11 01:40:00,
2013-02-10 20:45:00,42.4,32.6,28.68,SE,136,0.0,0.0,68,0.03,RA,RA,0.03,WeatherDisplay:10.37,2013-02-11 01:45:00,
2013-02-10 20:51:00,41.9,32.8,28.67,SE,136,0.0,0.0,70,0.04,RA,RA,0.04,WeatherDisplay:10.37,2013-02-11 01:51:00,
2013-02-10 20:56:00,41.6,33.6,28.68,SE,136,0.0,0.0,73,0.05,RA,RA,0.05,WeatherDisplay:10.37,2013-02-11 01:56:00,
2013-02-10 21:01:00,41.3,34.0,28.67,SE,136,0.0,0.1,75,0.05,RA,RA,0.06,WeatherDisplay:10.37,2013-02-11 02:01:00,
2013-02-10 21:06:00,41.1,34.1,28.68,SE,136,0.0,0.0,76,0.06,RA,RA,0.06,WeatherDisplay:10.37,2013-02-11 02:06:00,
2013-02-10 21:11:00,40.8,34.5,28.68,SE,137,2.3,2.3,78,0.07,RA,RA,0.07,WeatherDisplay:10.37,2013-02-11 02:11:00,
2013-02-10 21:16:00,40.5,34.8,28.67,SE,138,3.5,3.5,80,0.08,RA,RA,0.08,WeatherDisplay:10.37,2013-02-11 02:16:00,
2013-02-10 21:21:00,40.2,35.1,28.67,SE,139,2.0,2.0,82,0.08,RA,RA,0.08,WeatherDisplay:10.37,2013-02-11 02:21:00,
2013-02-10 21:27:00,39.9,35.8,28.66,SE,138,0.0,0.0,85,0.08,,,0.08,WeatherDisplay:10.37,2013-02-11 02:27:00,
2013-02-10 21:32:00,39.5,35.1,28.67,SE,139,2.3,2.3,84,0.09,RA,RA,0.09,WeatherDisplay:10.37,2013-02-11 02:32:00,
2013-02-10 21:37:00,39.2,35.4,28.66,SE,138,1.2,1.2,86,0.08,RA,RA,0.09,WeatherDisplay:10.37,2013-02-11 02:37:00,
2013-02-10 21:42:00,39.0,35.7,28.65,SE,138,3.5,3.5,88,0.07,CLR,CLR,0.09,WeatherDisplay:10.37,2013-02-11 02:42:00,
2013-02-10 21:47:00,39.0,36.3,28.64,SE,139,1.2,1.2,90,0.06,CLR,CLR,0.09,WeatherDisplay:10.37,2013-02-11 02:47:00,
2013-02-10 21:53:00,38.8,36.4,28.63,SE,139,0.0,0.0,91,0.06,RA,RA,0.10,WeatherDisplay:10.37,2013-02-11 02:53:00,
2013-02-10 21:58:00,38.7,36.6,28.63,SE,139,0.0,0.0,92,0.05,RA,RA,0.10,WeatherDisplay:10.37,2013-02-11 02:58:00,
2013-02-10 22:03:00,38.7,36.6,28.63,SE,139,0.0,0.0,92,0.04,CLR,CLR,0.10,WeatherDisplay:10.37,2013-02-11 03:03:00,
2013-02-10 22:08:00,38.6,36.5,28.62,SE,139,0.0,0.0,92,0.04,CLR,CLR,0.10,WeatherDisplay:10.37,2013-02-11 03:08:00,
2013-02-10 22:13:00,38.5,36.4,28.62,SE,139,0.0,0.0,92,0.03,CLR,CLR,0.10,WeatherDisplay:10.37,2013-02-11 03:13:00,
2013-02-10 22:19:00,38.3,36.5,28.62,SE,139,2.0,2.0,93,0.02,CLR,CLR,0.10,WeatherDisplay:10.37,2013-02-11 03:19:00,
2013-02-10 22:24:00,38.4,36.6,28.62,SE,139,1.2,0.0,93,0.02,CLR,CLR,0.10,WeatherDisplay:10.37,2013-02-11 03:24:00,
2013-02-10 22:29:00,38.4,36.8,28.63,SE,139,0.0,0.0,94,0.02,CLR,CLR,0.10,WeatherDisplay:10.37,2013-02-11 03:29:00,
2013-02-10 22:34:00,38.4,36.8,28.62,SE,139,0.0,0.0,94,0.01,CLR,CLR,0.10,WeatherDisplay:10.37,2013-02-11 03:34:00,
2013-02-10 22:39:00,38.5,37.2,28.62,SE,139,0.0,0.0,95,0.01,CLR,CLR,0.10,WeatherDisplay:10.37,2013-02-11 03:39:00,
2013-02-10 22:45:00,38.4,37.1,28.62,SE,139,0.0,0.0,95,0.01,CLR,CLR,0.10,WeatherDisplay:10.37,2013-02-11 03:45:00,
2013-02-10 22:50:00,38.4,37.1,28.62,SE,139,0.0,0.0,95,0.01,CLR,CLR,0.10,WeatherDisplay:10.37,2013-02-11 03:50:00,
2013-02-10 22:55:00,38.4,37.1,28.62,SE,139,0.0,0.0,95,0.00,CLR,CLR,0.10,WeatherDisplay:10.37,2013-02-11 03:55:00,
2013-02-10 23:00:00,38.5,36.9,28.61,SE,139,0.0,0.0,94,0.00,CLR,CLR,0.10,WeatherDisplay:10.37,2013-02-11 04:00:00,
2013-02-10 23:05:00,38.4,36.8,28.62,SE,139,0.0,0.0,94,0.00,CLR,CLR,0.10,WeatherDisplay:10.37,2013-02-11 04:05:00,
2013-02-10 23:11:00,38.5,36.9,28.60,SE,139,0.0,0.0,94,0.00,CLR,CLR,0.10,WeatherDisplay:10.37,2013-02-11 04:11:00,
2013-02-10 23:16:00,38.6,37.0,28.60,SE,139,0.0,0.0,94,0.00,CLR,CLR,0.10,WeatherDisplay:10.37,2013-02-11 04:16:00,
2013-02-10 23:21:00,38.6,37.0,28.61,SE,139,0.0,0.0,94,0.00,CLR,CLR,0.10,WeatherDisplay:10.37,2013-02-11 04:21:00,
2013-02-10 23:26:00,38.6,37.0,28.60,SE,139,0.0,0.0,94,0.00,CLR,CLR,0.10,WeatherDisplay:10.37,2013-02-11 04:26:00,
2013-02-10 23:31:00,38.7,36.9,28.61,SE,146,1.2,1.2,93,0.00,CLR,CLR,0.10,WeatherDisplay:10.37,2013-02-11 04:31:00,
2013-02-10 23:37:00,38.7,37.1,28.60,SSE,154,1.2,0.0,94,0.00,CLR,CLR,0.10,WeatherDisplay:10.37,2013-02-11 04:37:00,
2013-02-10 23:42:00,38.7,37.4,28.60,South,175,3.5,3.5,95,0.01,RA,RA,0.11,WeatherDisplay:10.37,2013-02-11 04:42:00,
2013-02-10 23:47:00,38.7,37.7,28.59,South,176,2.0,2.0,96,0.01,RA,RA,0.11,WeatherDisplay:10.37,2013-02-11 04:47:00,
2013-02-10 23:52:00,38.6,37.6,28.58,South,176,0.0,0.0,96,0.01,,,0.11,WeatherDisplay:10.37,2013-02-11 04:52:00,
2013-02-10 23:57:00,38.6,37.6,28.58,South,176,0.0,0.0,96,0.02,RA,RA,0.12,WeatherDisplay:10.37,2013-02-11 04:57:00,